sensor_id;sensor_type;location;lat;lon;timestamp;P1;durP1;ratioP1;P2;durP2;ratioP2
41514;SDS011;27247;48.020;16.720;2022-12-13T00:02:51;28.60;;;12.20;;
41514;SDS011;27247;48.020;16.720;2022-12-13T00:07:01;32.05;;;13.13;;
41514;SDS011;27247;48.020;16.720;2022-12-13T00:11:12;34.45;;;14.45;;
41514;SDS011;27247;48.020;16.720;2022-12-13T00:15:24;24.58;;;11.73;;
41514;SDS011;27247;48.020;16.720;2022-12-13T00:19:34;24.67;;;11.82;;
41514;SDS011;27247;48.020;16.720;2022-12-13T00:23:44;27.60;;;12.18;;
41514;SDS011;27247;48.020;16.720;2022-12-13T00:27:55;26.80;;;11.15;;
41514;SDS011;27247;48.020;16.720;2022-12-13T00:32:06;29.83;;;11.43;;
41514;SDS011;27247;48.020;16.720;2022-12-13T00:36:16;31.95;;;13.25;;
41514;SDS011;27247;48.020;16.720;2022-12-13T00:40:27;25.00;;;11.40;;
41514;SDS011;27247;48.020;16.720;2022-12-13T00:44:37;25.95;;;10.05;;
41514;SDS011;27247;48.020;16.720;2022-12-13T00:48:48;28.38;;;12.23;;
41514;SDS011;27247;48.020;16.720;2022-12-13T00:53:00;21.98;;;10.77;;
41514;SDS011;27247;48.020;16.720;2022-12-13T00:57:11;20.27;;;9.68;;
41514;SDS011;27247;48.020;16.720;2022-12-13T01:01:23;23.02;;;10.82;;
41514;SDS011;27247;48.020;16.720;2022-12-13T01:05:35;27.58;;;11.23;;
41514;SDS011;27247;48.020;16.720;2022-12-13T01:09:45;28.95;;;11.27;;
41514;SDS011;27247;48.020;16.720;2022-12-13T01:13:56;24.05;;;11.02;;
41514;SDS011;27247;48.020;16.720;2022-12-13T01:18:06;22.73;;;11.05;;
41514;SDS011;27247;48.020;16.720;2022-12-13T01:22:17;25.65;;;10.93;;
41514;SDS011;27247;48.020;16.720;2022-12-13T01:26:27;26.90;;;11.80;;
41514;SDS011;27247;48.020;16.720;2022-12-13T01:30:38;27.38;;;11.65;;
41514;SDS011;27247;48.020;16.720;2022-12-13T01:34:48;25.85;;;12.07;;
41514;SDS011;27247;48.020;16.720;2022-12-13T01:38:59;24.52;;;11.63;;
41514;SDS011;27247;48.020;16.720;2022-12-13T01:43:13;25.77;;;12.52;;
41514;SDS011;27247;48.020;16.720;2022-12-13T01:47:26;25.52;;;12.07;;
41514;SDS011;27247;48.020;16.720;2022-12-13T01:51:41;26.42;;;12.63;;
41514;SDS011;27247;48.020;16.720;2022-12-13T01:55:57;33.60;;;12.57;;
41514;SDS011;27247;48.020;16.720;2022-12-13T02:00:13;28.42;;;12.25;;
41514;SDS011;27247;48.020;16.720;2022-12-13T02:04:29;29.65;;;14.15;;
41514;SDS011;27247;48.020;16.720;2022-12-13T02:08:46;28.88;;;12.07;;
41514;SDS011;27247;48.020;16.720;2022-12-13T02:12:56;30.60;;;12.48;;
41514;SDS011;27247;48.020;16.720;2022-12-13T02:26:33;25.27;;;12.20;;
41514;SDS011;27247;48.020;16.720;2022-12-13T02:35:20;26.67;;;12.27;;
41514;SDS011;27247;48.020;16.720;2022-12-13T02:39:44;27.30;;;12.07;;
41514;SDS011;27247;48.020;16.720;2022-12-13T02:44:05;28.38;;;11.75;;
41514;SDS011;27247;48.020;16.720;2022-12-13T02:48:18;24.17;;;10.27;;
41514;SDS011;27247;48.020;16.720;2022-12-13T02:52:32;29.42;;;12.70;;
41514;SDS011;27247;48.020;16.720;2022-12-13T02:56:54;23.52;;;12.38;;
41514;SDS011;27247;48.020;16.720;2022-12-13T03:19:44;29.50;;;12.82;;
41514;SDS011;27247;48.020;16.720;2022-12-13T03:23:54;32.20;;;13.20;;
41514;SDS011;27247;48.020;16.720;2022-12-13T03:28:05;32.45;;;13.10;;
41514;SDS011;27247;48.020;16.720;2022-12-13T03:32:15;30.85;;;13.18;;
41514;SDS011;27247;48.020;16.720;2022-12-13T03:36:25;28.55;;;12.90;;
41514;SDS011;27247;48.020;16.720;2022-12-13T03:40:36;25.40;;;12.00;;
41514;SDS011;27247;48.020;16.720;2022-12-13T03:44:46;25.63;;;11.93;;
41514;SDS011;27247;48.020;16.720;2022-12-13T03:48:56;26.90;;;12.85;;
41514;SDS011;27247;48.020;16.720;2022-12-13T03:53:07;31.25;;;13.75;;
41514;SDS011;27247;48.020;16.720;2022-12-13T03:57:17;28.15;;;12.15;;
41514;SDS011;27247;48.020;16.720;2022-12-13T04:01:28;27.63;;;12.55;;
41514;SDS011;27247;48.020;16.720;2022-12-13T04:05:38;23.45;;;11.55;;
41514;SDS011;27247;48.020;16.720;2022-12-13T04:09:48;23.25;;;11.82;;
41514;SDS011;27247;48.020;16.720;2022-12-13T04:13:59;25.30;;;11.50;;
41514;SDS011;27247;48.020;16.720;2022-12-13T04:18:09;27.63;;;11.95;;
41514;SDS011;27247;48.020;16.720;2022-12-13T04:22:19;32.63;;;14.43;;
41514;SDS011;27247;48.020;16.720;2022-12-13T04:26:30;25.92;;;12.02;;
41514;SDS011;27247;48.020;16.720;2022-12-13T04:30:40;28.42;;;11.77;;
41514;SDS011;27247;48.020;16.720;2022-12-13T04:34:50;24.98;;;11.05;;
41514;SDS011;27247;48.020;16.720;2022-12-13T04:39:01;26.45;;;11.40;;
41514;SDS011;27247;48.020;16.720;2022-12-13T04:43:13;29.25;;;12.65;;
41514;SDS011;27247;48.020;16.720;2022-12-13T04:47:24;27.00;;;12.35;;
41514;SDS011;27247;48.020;16.720;2022-12-13T04:51:34;25.02;;;10.55;;
41514;SDS011;27247;48.020;16.720;2022-12-13T04:55:45;25.77;;;11.57;;
41514;SDS011;27247;48.020;16.720;2022-12-13T04:59:55;31.75;;;11.20;;
41514;SDS011;27247;48.020;16.720;2022-12-13T05:04:05;27.40;;;12.25;;
41514;SDS011;27247;48.020;16.720;2022-12-13T05:08:16;28.67;;;13.10;;
41514;SDS011;27247;48.020;16.720;2022-12-13T05:12:26;28.08;;;12.93;;
41514;SDS011;27247;48.020;16.720;2022-12-13T05:16:36;27.95;;;12.57;;
41514;SDS011;27247;48.020;16.720;2022-12-13T05:20:47;26.73;;;12.05;;
41514;SDS011;27247;48.020;16.720;2022-12-13T05:24:59;27.48;;;11.07;;
41514;SDS011;27247;48.020;16.720;2022-12-13T05:29:10;29.58;;;11.70;;
41514;SDS011;27247;48.020;16.720;2022-12-13T05:33:21;32.33;;;12.40;;
41514;SDS011;27247;48.020;16.720;2022-12-13T05:37:32;29.80;;;11.68;;
41514;SDS011;27247;48.020;16.720;2022-12-13T05:41:42;26.60;;;12.25;;
41514;SDS011;27247;48.020;16.720;2022-12-13T05:45:53;24.67;;;12.02;;
41514;SDS011;27247;48.020;16.720;2022-12-13T05:50:03;24.10;;;10.80;;
41514;SDS011;27247;48.020;16.720;2022-12-13T05:54:14;36.30;;;13.68;;
41514;SDS011;27247;48.020;16.720;2022-12-13T05:58:24;35.80;;;14.63;;
41514;SDS011;27247;48.020;16.720;2022-12-13T06:02:38;32.88;;;14.23;;
41514;SDS011;27247;48.020;16.720;2022-12-13T06:06:50;33.83;;;13.65;;
41514;SDS011;27247;48.020;16.720;2022-12-13T06:11:01;45.40;;;16.00;;
41514;SDS011;27247;48.020;16.720;2022-12-13T06:15:12;36.03;;;13.30;;
41514;SDS011;27247;48.020;16.720;2022-12-13T06:19:23;36.13;;;15.43;;
41514;SDS011;27247;48.020;16.720;2022-12-13T06:23:34;30.05;;;14.05;;
41514;SDS011;27247;48.020;16.720;2022-12-13T06:27:45;31.27;;;14.13;;
41514;SDS011;27247;48.020;16.720;2022-12-13T06:31:56;40.42;;;16.15;;
41514;SDS011;27247;48.020;16.720;2022-12-13T06:36:08;37.53;;;16.35;;
41514;SDS011;27247;48.020;16.720;2022-12-13T06:40:19;45.75;;;18.48;;
41514;SDS011;27247;48.020;16.720;2022-12-13T06:44:29;64.13;;;21.15;;
41514;SDS011;27247;48.020;16.720;2022-12-13T06:48:40;37.42;;;14.85;;
41514;SDS011;27247;48.020;16.720;2022-12-13T06:52:50;40.80;;;14.80;;
41514;SDS011;27247;48.020;16.720;2022-12-13T06:57:01;36.55;;;14.55;;
41514;SDS011;27247;48.020;16.720;2022-12-13T07:01:15;41.60;;;14.65;;
41514;SDS011;27247;48.020;16.720;2022-12-13T07:05:27;26.83;;;11.13;;
41514;SDS011;27247;48.020;16.720;2022-12-13T07:09:37;27.70;;;11.10;;
41514;SDS011;27247;48.020;16.720;2022-12-13T07:13:48;22.52;;;10.60;;
41514;SDS011;27247;48.020;16.720;2022-12-13T07:17:58;31.30;;;12.63;;
41514;SDS011;27247;48.020;16.720;2022-12-13T07:22:08;25.60;;;11.30;;
41514;SDS011;27247;48.020;16.720;2022-12-13T07:26:19;33.40;;;13.80;;
41514;SDS011;27247;48.020;16.720;2022-12-13T07:30:34;37.42;;;15.20;;
41514;SDS011;27247;48.020;16.720;2022-12-13T07:34:46;39.65;;;16.17;;
41514;SDS011;27247;48.020;16.720;2022-12-13T07:38:56;37.85;;;16.67;;
41514;SDS011;27247;48.020;16.720;2022-12-13T07:43:08;36.33;;;16.75;;
41514;SDS011;27247;48.020;16.720;2022-12-13T07:47:18;35.58;;;15.20;;
41514;SDS011;27247;48.020;16.720;2022-12-13T07:51:28;45.88;;;16.98;;
41514;SDS011;27247;48.020;16.720;2022-12-13T07:55:39;53.80;;;20.77;;
41514;SDS011;27247;48.020;16.720;2022-12-13T07:59:49;84.18;;;29.40;;
41514;SDS011;27247;48.020;16.720;2022-12-13T08:04:00;69.15;;;24.92;;
41514;SDS011;27247;48.020;16.720;2022-12-13T08:08:10;223.80;;;60.30;;
41514;SDS011;27247;48.020;16.720;2022-12-13T08:12:21;79.03;;;28.70;;
41514;SDS011;27247;48.020;16.720;2022-12-13T08:16:31;88.60;;;30.63;;
41514;SDS011;27247;48.020;16.720;2022-12-13T08:20:41;48.63;;;18.85;;
41514;SDS011;27247;48.020;16.720;2022-12-13T08:24:52;40.80;;;16.58;;
41514;SDS011;27247;48.020;16.720;2022-12-13T08:29:02;43.45;;;19.25;;
41514;SDS011;27247;48.020;16.720;2022-12-13T08:33:13;48.38;;;19.42;;
41514;SDS011;27247;48.020;16.720;2022-12-13T08:37:24;43.45;;;18.52;;
41514;SDS011;27247;48.020;16.720;2022-12-13T08:41:34;33.78;;;15.57;;
41514;SDS011;27247;48.020;16.720;2022-12-13T08:45:45;36.92;;;14.43;;
41514;SDS011;27247;48.020;16.720;2022-12-13T08:49:58;38.00;;;15.45;;
41514;SDS011;27247;48.020;16.720;2022-12-13T08:54:09;40.85;;;15.95;;
41514;SDS011;27247;48.020;16.720;2022-12-13T08:58:19;32.88;;;13.52;;
41514;SDS011;27247;48.020;16.720;2022-12-13T09:02:30;32.78;;;14.13;;
41514;SDS011;27247;48.020;16.720;2022-12-13T09:06:41;24.48;;;11.23;;
41514;SDS011;27247;48.020;16.720;2022-12-13T09:10:56;28.40;;;10.27;;
41514;SDS011;27247;48.020;16.720;2022-12-13T09:15:07;25.60;;;10.90;;
41514;SDS011;27247;48.020;16.720;2022-12-13T09:19:18;24.60;;;10.90;;
41514;SDS011;27247;48.020;16.720;2022-12-13T09:23:28;24.10;;;11.27;;
41514;SDS011;27247;48.020;16.720;2022-12-13T09:27:38;28.85;;;11.95;;
41514;SDS011;27247;48.020;16.720;2022-12-13T09:31:49;52.45;;;13.95;;
41514;SDS011;27247;48.020;16.720;2022-12-13T09:36:01;15.70;;;6.70;;
41514;SDS011;27247;48.020;16.720;2022-12-13T09:40:19;11.30;;;6.40;;
41514;SDS011;27247;48.020;16.720;2022-12-13T09:44:33;13.75;;;6.20;;
41514;SDS011;27247;48.020;16.720;2022-12-13T09:48:47;13.50;;;6.47;;
41514;SDS011;27247;48.020;16.720;2022-12-13T09:52:59;12.73;;;6.82;;
41514;SDS011;27247;48.020;16.720;2022-12-13T09:57:14;13.90;;;6.07;;
41514;SDS011;27247;48.020;16.720;2022-12-13T10:01:30;11.40;;;6.25;;
41514;SDS011;27247;48.020;16.720;2022-12-13T10:05:50;15.55;;;6.30;;
41514;SDS011;27247;48.020;16.720;2022-12-13T10:10:08;17.30;;;7.32;;
41514;SDS011;27247;48.020;16.720;2022-12-13T10:14:30;16.08;;;6.13;;
41514;SDS011;27247;48.020;16.720;2022-12-13T10:18:46;28.42;;;8.30;;
41514;SDS011;27247;48.020;16.720;2022-12-13T10:22:56;17.15;;;6.22;;
41514;SDS011;27247;48.020;16.720;2022-12-13T10:27:13;15.05;;;5.50;;
41514;SDS011;27247;48.020;16.720;2022-12-13T10:31:26;12.65;;;5.93;;
41514;SDS011;27247;48.020;16.720;2022-12-13T10:35:37;13.95;;;6.07;;
41514;SDS011;27247;48.020;16.720;2022-12-13T10:39:49;49.40;;;7.63;;
41514;SDS011;27247;48.020;16.720;2022-12-13T10:48:35;13.55;;;5.68;;
41514;SDS011;27247;48.020;16.720;2022-12-13T10:52:48;10.57;;;6.38;;
41514;SDS011;27247;48.020;16.720;2022-12-13T10:56:59;13.80;;;6.72;;
41514;SDS011;27247;48.020;16.720;2022-12-13T11:01:11;16.67;;;6.25;;
41514;SDS011;27247;48.020;16.720;2022-12-13T11:05:30;12.57;;;6.32;;
41514;SDS011;27247;48.020;16.720;2022-12-13T11:09:42;10.57;;;5.90;;
41514;SDS011;27247;48.020;16.720;2022-12-13T11:13:53;10.47;;;6.40;;
41514;SDS011;27247;48.020;16.720;2022-12-13T11:18:17;13.60;;;6.40;;
41514;SDS011;27247;48.020;16.720;2022-12-13T11:22:34;11.10;;;6.07;;
41514;SDS011;27247;48.020;16.720;2022-12-13T11:26:48;15.10;;;6.03;;
41514;SDS011;27247;48.020;16.720;2022-12-13T11:31:10;11.15;;;6.13;;
41514;SDS011;27247;48.020;16.720;2022-12-13T11:35:42;11.43;;;5.93;;
41514;SDS011;27247;48.020;16.720;2022-12-13T11:44:40;12.77;;;6.30;;
41514;SDS011;27247;48.020;16.720;2022-12-13T11:49:02;11.85;;;6.07;;
41514;SDS011;27247;48.020;16.720;2022-12-13T11:57:47;9.52;;;5.90;;
41514;SDS011;27247;48.020;16.720;2022-12-13T12:02:10;14.63;;;6.50;;
41514;SDS011;27247;48.020;16.720;2022-12-13T12:06:41;10.00;;;6.40;;
41514;SDS011;27247;48.020;16.720;2022-12-13T12:11:07;11.48;;;5.93;;
41514;SDS011;27247;48.020;16.720;2022-12-13T12:15:22;13.52;;;6.47;;
41514;SDS011;27247;48.020;16.720;2022-12-13T12:19:36;8.90;;;5.50;;
41514;SDS011;27247;48.020;16.720;2022-12-13T12:23:57;11.13;;;6.45;;
41514;SDS011;27247;48.020;16.720;2022-12-13T12:37:37;9.68;;;6.00;;
41514;SDS011;27247;48.020;16.720;2022-12-13T12:42:02;14.00;;;6.15;;
41514;SDS011;27247;48.020;16.720;2022-12-13T12:50:43;11.07;;;6.53;;
41514;SDS011;27247;48.020;16.720;2022-12-13T12:55:08;14.32;;;6.32;;
41514;SDS011;27247;48.020;16.720;2022-12-13T12:59:34;13.25;;;6.10;;
41514;SDS011;27247;48.020;16.720;2022-12-13T13:03:48;12.18;;;6.00;;
41514;SDS011;27247;48.020;16.720;2022-12-13T13:08:06;14.25;;;7.18;;
41514;SDS011;27247;48.020;16.720;2022-12-13T13:12:23;13.90;;;6.65;;
41514;SDS011;27247;48.020;16.720;2022-12-13T13:16:36;14.98;;;6.82;;
41514;SDS011;27247;48.020;16.720;2022-12-13T13:21:08;14.73;;;6.90;;
41514;SDS011;27247;48.020;16.720;2022-12-13T13:25:37;9.18;;;5.88;;
41514;SDS011;27247;48.020;16.720;2022-12-13T13:29:47;10.68;;;6.43;;
41514;SDS011;27247;48.020;16.720;2022-12-13T13:33:58;11.73;;;6.95;;
41514;SDS011;27247;48.020;16.720;2022-12-13T13:38:47;13.55;;;7.82;;
41514;SDS011;27247;48.020;16.720;2022-12-13T13:43:00;13.13;;;7.15;;
41514;SDS011;27247;48.020;16.720;2022-12-13T14:05:50;16.75;;;8.10;;
41514;SDS011;27247;48.020;16.720;2022-12-13T14:10:17;18.85;;;9.02;;
41514;SDS011;27247;48.020;16.720;2022-12-13T14:19:39;17.27;;;8.38;;
41514;SDS011;27247;48.020;16.720;2022-12-13T14:32:55;18.58;;;9.23;;
41514;SDS011;27247;48.020;16.720;2022-12-13T14:37:17;18.35;;;8.77;;
41514;SDS011;27247;48.020;16.720;2022-12-13T14:41:31;18.35;;;9.18;;
41514;SDS011;27247;48.020;16.720;2022-12-13T14:45:41;16.90;;;8.60;;
41514;SDS011;27247;48.020;16.720;2022-12-13T14:49:53;19.17;;;9.65;;
41514;SDS011;27247;48.020;16.720;2022-12-13T14:54:05;16.20;;;8.93;;
41514;SDS011;27247;48.020;16.720;2022-12-13T14:58:17;15.65;;;8.20;;
41514;SDS011;27247;48.020;16.720;2022-12-13T15:02:31;21.77;;;9.10;;
41514;SDS011;27247;48.020;16.720;2022-12-13T15:06:42;23.48;;;9.75;;
41514;SDS011;27247;48.020;16.720;2022-12-13T15:10:55;25.20;;;9.70;;
41514;SDS011;27247;48.020;16.720;2022-12-13T15:15:07;19.52;;;9.48;;
41514;SDS011;27247;48.020;16.720;2022-12-13T15:19:31;19.80;;;9.00;;
41514;SDS011;27247;48.020;16.720;2022-12-13T15:23:41;20.23;;;9.77;;
41514;SDS011;27247;48.020;16.720;2022-12-13T15:27:52;22.02;;;10.50;;
41514;SDS011;27247;48.020;16.720;2022-12-13T15:32:04;18.90;;;9.70;;
41514;SDS011;27247;48.020;16.720;2022-12-13T15:36:25;15.52;;;8.27;;
41514;SDS011;27247;48.020;16.720;2022-12-13T15:40:37;19.60;;;10.02;;
41514;SDS011;27247;48.020;16.720;2022-12-13T15:44:51;18.90;;;8.93;;
41514;SDS011;27247;48.020;16.720;2022-12-13T15:49:05;15.03;;;8.80;;
41514;SDS011;27247;48.020;16.720;2022-12-13T15:53:30;19.20;;;8.80;;
41514;SDS011;27247;48.020;16.720;2022-12-13T15:57:54;19.70;;;9.57;;
41514;SDS011;27247;48.020;16.720;2022-12-13T16:02:20;23.92;;;10.27;;
41514;SDS011;27247;48.020;16.720;2022-12-13T16:06:32;17.42;;;9.23;;
41514;SDS011;27247;48.020;16.720;2022-12-13T16:10:46;23.70;;;9.70;;
41514;SDS011;27247;48.020;16.720;2022-12-13T16:15:05;21.05;;;10.23;;
41514;SDS011;27247;48.020;16.720;2022-12-13T16:19:23;22.70;;;10.57;;
41514;SDS011;27247;48.020;16.720;2022-12-13T16:23:35;28.52;;;13.57;;
41514;SDS011;27247;48.020;16.720;2022-12-13T16:27:45;29.33;;;13.57;;
41514;SDS011;27247;48.020;16.720;2022-12-13T16:31:56;27.80;;;13.10;;
41514;SDS011;27247;48.020;16.720;2022-12-13T16:36:07;26.60;;;13.10;;
41514;SDS011;27247;48.020;16.720;2022-12-13T16:40:22;34.80;;;14.75;;
41514;SDS011;27247;48.020;16.720;2022-12-13T16:44:38;24.27;;;12.85;;
41514;SDS011;27247;48.020;16.720;2022-12-13T16:48:50;28.55;;;13.05;;
41514;SDS011;27247;48.020;16.720;2022-12-13T16:53:02;30.35;;;13.07;;
41514;SDS011;27247;48.020;16.720;2022-12-13T16:57:13;29.75;;;13.65;;
41514;SDS011;27247;48.020;16.720;2022-12-13T17:01:24;30.08;;;14.02;;
41514;SDS011;27247;48.020;16.720;2022-12-13T17:05:38;29.00;;;14.18;;
41514;SDS011;27247;48.020;16.720;2022-12-13T17:09:50;27.30;;;13.88;;
41514;SDS011;27247;48.020;16.720;2022-12-13T17:14:01;28.88;;;12.60;;
41514;SDS011;27247;48.020;16.720;2022-12-13T17:18:13;31.65;;;14.90;;
41514;SDS011;27247;48.020;16.720;2022-12-13T17:22:25;31.98;;;13.80;;
41514;SDS011;27247;48.020;16.720;2022-12-13T17:26:36;27.00;;;13.45;;
41514;SDS011;27247;48.020;16.720;2022-12-13T17:30:47;32.15;;;13.98;;
41514;SDS011;27247;48.020;16.720;2022-12-13T17:34:58;32.75;;;15.00;;
41514;SDS011;27247;48.020;16.720;2022-12-13T17:39:10;31.83;;;14.27;;
41514;SDS011;27247;48.020;16.720;2022-12-13T17:43:21;37.35;;;15.27;;
41514;SDS011;27247;48.020;16.720;2022-12-13T17:47:32;30.08;;;13.45;;
41514;SDS011;27247;48.020;16.720;2022-12-13T17:51:43;36.38;;;14.57;;
41514;SDS011;27247;48.020;16.720;2022-12-13T17:55:54;32.63;;;15.25;;
41514;SDS011;27247;48.020;16.720;2022-12-13T18:00:10;31.17;;;14.52;;
41514;SDS011;27247;48.020;16.720;2022-12-13T18:04:22;33.72;;;15.60;;
41514;SDS011;27247;48.020;16.720;2022-12-13T18:08:37;35.22;;;15.32;;
41514;SDS011;27247;48.020;16.720;2022-12-13T18:12:48;35.45;;;16.17;;
41514;SDS011;27247;48.020;16.720;2022-12-13T18:16:59;35.00;;;15.30;;
41514;SDS011;27247;48.020;16.720;2022-12-13T18:21:11;34.75;;;16.40;;
41514;SDS011;27247;48.020;16.720;2022-12-13T18:25:24;37.97;;;16.75;;
41514;SDS011;27247;48.020;16.720;2022-12-13T18:29:34;37.45;;;16.80;;
41514;SDS011;27247;48.020;16.720;2022-12-13T18:33:45;38.25;;;16.20;;
41514;SDS011;27247;48.020;16.720;2022-12-13T18:37:56;39.67;;;18.10;;
41514;SDS011;27247;48.020;16.720;2022-12-13T18:42:08;36.83;;;16.35;;
41514;SDS011;27247;48.020;16.720;2022-12-13T18:46:19;44.78;;;18.08;;
41514;SDS011;27247;48.020;16.720;2022-12-13T18:50:30;41.55;;;19.48;;
41514;SDS011;27247;48.020;16.720;2022-12-13T18:54:40;35.53;;;17.83;;
41514;SDS011;27247;48.020;16.720;2022-12-13T18:58:53;46.13;;;18.52;;
41514;SDS011;27247;48.020;16.720;2022-12-13T19:03:15;32.97;;;15.15;;
41514;SDS011;27247;48.020;16.720;2022-12-13T19:07:25;41.88;;;17.63;;
41514;SDS011;27247;48.020;16.720;2022-12-13T19:11:36;35.75;;;16.23;;
41514;SDS011;27247;48.020;16.720;2022-12-13T19:15:47;36.13;;;16.92;;
41514;SDS011;27247;48.020;16.720;2022-12-13T19:19:58;30.70;;;14.35;;
41514;SDS011;27247;48.020;16.720;2022-12-13T19:24:11;35.33;;;15.50;;
41514;SDS011;27247;48.020;16.720;2022-12-13T19:28:22;34.10;;;14.98;;
41514;SDS011;27247;48.020;16.720;2022-12-13T19:32:33;38.70;;;15.75;;
41514;SDS011;27247;48.020;16.720;2022-12-13T19:36:44;41.90;;;16.27;;
41514;SDS011;27247;48.020;16.720;2022-12-13T19:40:55;34.20;;;17.48;;
41514;SDS011;27247;48.020;16.720;2022-12-13T19:45:06;38.40;;;17.42;;
41514;SDS011;27247;48.020;16.720;2022-12-13T19:49:17;43.38;;;16.65;;
41514;SDS011;27247;48.020;16.720;2022-12-13T19:53:29;37.72;;;16.88;;
41514;SDS011;27247;48.020;16.720;2022-12-13T19:57:40;39.10;;;18.20;;
41514;SDS011;27247;48.020;16.720;2022-12-13T20:01:51;39.65;;;16.50;;
41514;SDS011;27247;48.020;16.720;2022-12-13T20:06:02;39.72;;;17.35;;
41514;SDS011;27247;48.020;16.720;2022-12-13T20:10:14;39.55;;;17.02;;
41514;SDS011;27247;48.020;16.720;2022-12-13T20:14:25;38.47;;;17.20;;
41514;SDS011;27247;48.020;16.720;2022-12-13T20:18:36;32.90;;;15.13;;
41514;SDS011;27247;48.020;16.720;2022-12-13T20:22:48;41.33;;;18.05;;
41514;SDS011;27247;48.020;16.720;2022-12-13T20:26:59;43.90;;;19.83;;
41514;SDS011;27247;48.020;16.720;2022-12-13T20:31:20;40.95;;;17.27;;
41514;SDS011;27247;48.020;16.720;2022-12-13T20:35:38;41.17;;;18.45;;
41514;SDS011;27247;48.020;16.720;2022-12-13T20:39:50;42.58;;;18.95;;
41514;SDS011;27247;48.020;16.720;2022-12-13T20:44:03;46.85;;;20.08;;
41514;SDS011;27247;48.020;16.720;2022-12-13T20:48:16;49.00;;;21.85;;
41514;SDS011;27247;48.020;16.720;2022-12-13T20:52:27;44.28;;;21.10;;
41514;SDS011;27247;48.020;16.720;2022-12-13T20:56:38;45.28;;;20.23;;
41514;SDS011;27247;48.020;16.720;2022-12-13T21:00:49;42.42;;;18.70;;
41514;SDS011;27247;48.020;16.720;2022-12-13T21:05:00;42.25;;;20.60;;
41514;SDS011;27247;48.020;16.720;2022-12-13T21:09:12;46.28;;;21.75;;
41514;SDS011;27247;48.020;16.720;2022-12-13T21:13:22;50.42;;;21.45;;
41514;SDS011;27247;48.020;16.720;2022-12-13T21:17:33;46.45;;;19.80;;
41514;SDS011;27247;48.020;16.720;2022-12-13T21:21:45;52.20;;;23.50;;
41514;SDS011;27247;48.020;16.720;2022-12-13T21:25:58;47.03;;;21.42;;
41514;SDS011;27247;48.020;16.720;2022-12-13T21:30:09;54.38;;;23.30;;
41514;SDS011;27247;48.020;16.720;2022-12-13T21:34:20;54.53;;;22.08;;
41514;SDS011;27247;48.020;16.720;2022-12-13T21:38:31;49.08;;;22.90;;
41514;SDS011;27247;48.020;16.720;2022-12-13T21:42:41;49.10;;;22.20;;
41514;SDS011;27247;48.020;16.720;2022-12-13T21:46:51;47.17;;;21.67;;
41514;SDS011;27247;48.020;16.720;2022-12-13T21:51:02;50.45;;;22.63;;
41514;SDS011;27247;48.020;16.720;2022-12-13T21:55:13;46.33;;;21.73;;
41514;SDS011;27247;48.020;16.720;2022-12-13T21:59:24;53.40;;;22.15;;
41514;SDS011;27247;48.020;16.720;2022-12-13T22:03:35;47.90;;;22.27;;
41514;SDS011;27247;48.020;16.720;2022-12-13T22:07:46;52.45;;;21.20;;
41514;SDS011;27247;48.020;16.720;2022-12-13T22:11:56;49.85;;;20.55;;
41514;SDS011;27247;48.020;16.720;2022-12-13T22:16:07;54.30;;;22.58;;
41514;SDS011;27247;48.020;16.720;2022-12-13T22:20:19;43.30;;;20.42;;
41514;SDS011;27247;48.020;16.720;2022-12-13T22:24:29;47.08;;;20.75;;
41514;SDS011;27247;48.020;16.720;2022-12-13T22:28:40;43.03;;;19.95;;
41514;SDS011;27247;48.020;16.720;2022-12-13T22:32:51;43.22;;;19.30;;
41514;SDS011;27247;48.020;16.720;2022-12-13T22:37:01;44.88;;;19.38;;
41514;SDS011;27247;48.020;16.720;2022-12-13T22:41:12;52.13;;;23.50;;
41514;SDS011;27247;48.020;16.720;2022-12-13T22:45:25;44.42;;;20.17;;
41514;SDS011;27247;48.020;16.720;2022-12-13T22:49:35;46.65;;;21.52;;
41514;SDS011;27247;48.020;16.720;2022-12-13T22:53:45;45.45;;;20.52;;
41514;SDS011;27247;48.020;16.720;2022-12-13T22:57:57;43.20;;;18.30;;
41514;SDS011;27247;48.020;16.720;2022-12-13T23:02:07;41.80;;;18.73;;
41514;SDS011;27247;48.020;16.720;2022-12-13T23:06:20;48.00;;;20.63;;
41514;SDS011;27247;48.020;16.720;2022-12-13T23:10:34;44.95;;;19.92;;
41514;SDS011;27247;48.020;16.720;2022-12-13T23:15:03;39.63;;;18.20;;
41514;SDS011;27247;48.020;16.720;2022-12-13T23:19:14;44.33;;;19.05;;
41514;SDS011;27247;48.020;16.720;2022-12-13T23:23:25;40.47;;;18.77;;
41514;SDS011;27247;48.020;16.720;2022-12-13T23:27:35;44.85;;;18.85;;
41514;SDS011;27247;48.020;16.720;2022-12-13T23:31:45;44.28;;;19.55;;
41514;SDS011;27247;48.020;16.720;2022-12-13T23:35:59;40.20;;;19.17;;
41514;SDS011;27247;48.020;16.720;2022-12-13T23:40:11;40.95;;;19.90;;
41514;SDS011;27247;48.020;16.720;2022-12-13T23:44:21;42.15;;;18.45;;
41514;SDS011;27247;48.020;16.720;2022-12-13T23:48:32;43.08;;;19.80;;
41514;SDS011;27247;48.020;16.720;2022-12-13T23:52:45;40.40;;;18.90;;
41514;SDS011;27247;48.020;16.720;2022-12-13T23:56:55;42.30;;;19.53;;
